sensor_id;sensor_type;location;lat;lon;timestamp;temperature;humidity
19665;DHT22;9980;51.020;7.772;2022-09-28T00:01:23;11.40;99.90
19665;DHT22;9980;51.020;7.772;2022-09-28T00:03:53;11.40;99.90
19665;DHT22;9980;51.020;7.772;2022-09-28T00:06:25;11.40;99.90
19665;DHT22;9980;51.020;7.772;2022-09-28T00:08:56;11.40;99.90
19665;DHT22;9980;51.020;7.772;2022-09-28T00:11:26;11.40;99.90
19665;DHT22;9980;51.020;7.772;2022-09-28T00:13:56;11.50;99.90
19665;DHT22;9980;51.020;7.772;2022-09-28T00:16:29;11.40;99.90
19665;DHT22;9980;51.020;7.772;2022-09-28T00:18:58;11.50;99.90
19665;DHT22;9980;51.020;7.772;2022-09-28T00:21:28;11.50;99.90
19665;DHT22;9980;51.020;7.772;2022-09-28T00:23:59;11.40;99.90
19665;DHT22;9980;51.020;7.772;2022-09-28T00:26:51;11.50;99.90
19665;DHT22;9980;51.020;7.772;2022-09-28T00:29:27;11.50;99.90
19665;DHT22;9980;51.020;7.772;2022-09-28T00:32:05;11.50;99.90
19665;DHT22;9980;51.020;7.772;2022-09-28T00:34:40;11.50;99.90
19665;DHT22;9980;51.020;7.772;2022-09-28T00:37:12;11.50;99.90
19665;DHT22;9980;51.020;7.772;2022-09-28T00:39:40;11.50;99.90
19665;DHT22;9980;51.020;7.772;2022-09-28T00:42:18;11.50;99.90
19665;DHT22;9980;51.020;7.772;2022-09-28T00:44:48;11.50;99.90
19665;DHT22;9980;51.020;7.772;2022-09-28T00:50:00;11.50;99.90
19665;DHT22;9980;51.020;7.772;2022-09-28T00:52:42;11.50;99.90
19665;DHT22;9980;51.020;7.772;2022-09-28T00:55:16;11.60;99.90
19665;DHT22;9980;51.020;7.772;2022-09-28T00:57:54;11.50;99.90
19665;DHT22;9980;51.020;7.772;2022-09-28T01:00:24;11.50;99.90
19665;DHT22;9980;51.020;7.772;2022-09-28T01:02:51;11.50;99.90
19665;DHT22;9980;51.020;7.772;2022-09-28T01:05:19;11.50;99.90
19665;DHT22;9980;51.020;7.772;2022-09-28T01:07:47;11.50;99.90
19665;DHT22;9980;51.020;7.772;2022-09-28T01:10:15;11.60;99.90
19665;DHT22;9980;51.020;7.772;2022-09-28T01:12:42;11.60;99.90
19665;DHT22;9980;51.020;7.772;2022-09-28T01:15:09;11.50;99.90
19665;DHT22;9980;51.020;7.772;2022-09-28T01:23:42;11.60;99.90
19665;DHT22;9980;51.020;7.772;2022-09-28T01:29:10;11.60;99.90
19665;DHT22;9980;51.020;7.772;2022-09-28T01:31:47;11.60;99.90
19665;DHT22;9980;51.020;7.772;2022-09-28T01:34:24;11.60;99.90
19665;DHT22;9980;51.020;7.772;2022-09-28T01:37:00;11.60;99.90
19665;DHT22;9980;51.020;7.772;2022-09-28T01:39:36;11.60;99.90
19665;DHT22;9980;51.020;7.772;2022-09-28T01:42:18;11.60;99.90
19665;DHT22;9980;51.020;7.772;2022-09-28T01:44:51;11.60;99.90
19665;DHT22;9980;51.020;7.772;2022-09-28T01:47:25;11.60;99.90
19665;DHT22;9980;51.020;7.772;2022-09-28T01:50:05;11.60;99.90
19665;DHT22;9980;51.020;7.772;2022-09-28T01:53:04;11.60;99.90
19665;DHT22;9980;51.020;7.772;2022-09-28T01:55:50;11.60;99.90
19665;DHT22;9980;51.020;7.772;2022-09-28T02:01:12;11.50;99.90
19665;DHT22;9980;51.020;7.772;2022-09-28T02:04:15;11.50;99.90
19665;DHT22;9980;51.020;7.772;2022-09-28T02:06:54;11.50;99.90
19665;DHT22;9980;51.020;7.772;2022-09-28T02:09:32;11.50;99.90
19665;DHT22;9980;51.020;7.772;2022-09-28T02:12:12;11.50;99.90
19665;DHT22;9980;51.020;7.772;2022-09-28T02:14:48;11.50;99.90
19665;DHT22;9980;51.020;7.772;2022-09-28T02:17:20;11.50;99.90
19665;DHT22;9980;51.020;7.772;2022-09-28T02:19:47;11.50;99.90
19665;DHT22;9980;51.020;7.772;2022-09-28T02:22:30;11.50;99.90
19665;DHT22;9980;51.020;7.772;2022-09-28T02:25:39;11.40;99.90
19665;DHT22;9980;51.020;7.772;2022-09-28T02:28:10;11.50;99.90
19665;DHT22;9980;51.020;7.772;2022-09-28T02:30:42;11.40;99.90
19665;DHT22;9980;51.020;7.772;2022-09-28T02:33:38;11.40;99.90
19665;DHT22;9980;51.020;7.772;2022-09-28T02:36:08;11.40;99.90
19665;DHT22;9980;51.020;7.772;2022-09-28T02:38:37;11.40;99.90
19665;DHT22;9980;51.020;7.772;2022-09-28T02:41:22;11.40;99.90
19665;DHT22;9980;51.020;7.772;2022-09-28T02:50:34;11.40;99.90
19665;DHT22;9980;51.020;7.772;2022-09-28T02:59:09;11.30;99.90
19665;DHT22;9980;51.020;7.772;2022-09-28T03:02:27;11.30;99.90
19665;DHT22;9980;51.020;7.772;2022-09-28T03:08:42;11.30;99.90
19665;DHT22;9980;51.020;7.772;2022-09-28T03:11:29;11.30;99.90
19665;DHT22;9980;51.020;7.772;2022-09-28T03:14:02;11.30;99.90
19665;DHT22;9980;51.020;7.772;2022-09-28T03:16:44;11.30;99.90
19665;DHT22;9980;51.020;7.772;2022-09-28T03:19:12;11.30;99.90
19665;DHT22;9980;51.020;7.772;2022-09-28T03:21:40;11.20;99.90
19665;DHT22;9980;51.020;7.772;2022-09-28T03:24:07;11.30;99.90
19665;DHT22;9980;51.020;7.772;2022-09-28T03:26:39;11.20;99.90
19665;DHT22;9980;51.020;7.772;2022-09-28T03:29:07;11.20;99.90
19665;DHT22;9980;51.020;7.772;2022-09-28T03:31:34;11.20;99.90
19665;DHT22;9980;51.020;7.772;2022-09-28T03:34:01;11.20;99.90
19665;DHT22;9980;51.020;7.772;2022-09-28T03:36:29;11.30;99.90
19665;DHT22;9980;51.020;7.772;2022-09-28T03:38:56;11.20;99.90
19665;DHT22;9980;51.020;7.772;2022-09-28T03:41:25;11.30;99.90
19665;DHT22;9980;51.020;7.772;2022-09-28T03:43:55;11.30;99.90
19665;DHT22;9980;51.020;7.772;2022-09-28T03:46:24;11.30;99.90
19665;DHT22;9980;51.020;7.772;2022-09-28T03:48:56;11.30;99.90
19665;DHT22;9980;51.020;7.772;2022-09-28T03:51:24;11.30;99.90
19665;DHT22;9980;51.020;7.772;2022-09-28T03:53:52;11.30;99.90
19665;DHT22;9980;51.020;7.772;2022-09-28T03:56:19;11.30;99.90
19665;DHT22;9980;51.020;7.772;2022-09-28T03:58:46;11.30;99.90
19665;DHT22;9980;51.020;7.772;2022-09-28T04:01:14;11.30;99.90
19665;DHT22;9980;51.020;7.772;2022-09-28T04:03:45;11.30;99.90
19665;DHT22;9980;51.020;7.772;2022-09-28T04:06:13;11.30;99.90
19665;DHT22;9980;51.020;7.772;2022-09-28T04:08:40;11.30;99.90
19665;DHT22;9980;51.020;7.772;2022-09-28T04:11:08;11.30;99.90
19665;DHT22;9980;51.020;7.772;2022-09-28T04:13:35;11.30;99.90
19665;DHT22;9980;51.020;7.772;2022-09-28T04:16:04;11.30;99.90
19665;DHT22;9980;51.020;7.772;2022-09-28T04:18:33;11.30;99.90
19665;DHT22;9980;51.020;7.772;2022-09-28T04:21:32;11.30;99.90
19665;DHT22;9980;51.020;7.772;2022-09-28T04:24:05;11.30;99.90
19665;DHT22;9980;51.020;7.772;2022-09-28T04:26:32;11.30;99.90
19665;DHT22;9980;51.020;7.772;2022-09-28T04:28:59;11.30;99.90
19665;DHT22;9980;51.020;7.772;2022-09-28T04:31:49;11.30;99.90
19665;DHT22;9980;51.020;7.772;2022-09-28T04:34:22;11.20;99.90
19665;DHT22;9980;51.020;7.772;2022-09-28T04:36:49;11.20;99.90
19665;DHT22;9980;51.020;7.772;2022-09-28T04:39:17;11.20;99.90
19665;DHT22;9980;51.020;7.772;2022-09-28T04:41:51;11.20;99.90
19665;DHT22;9980;51.020;7.772;2022-09-28T04:44:18;11.20;99.90
19665;DHT22;9980;51.020;7.772;2022-09-28T04:46:47;11.20;99.90
19665;DHT22;9980;51.020;7.772;2022-09-28T04:49:29;11.20;99.90
19665;DHT22;9980;51.020;7.772;2022-09-28T04:52:05;11.20;99.90
19665;DHT22;9980;51.020;7.772;2022-09-28T04:54:33;11.20;99.90
19665;DHT22;9980;51.020;7.772;2022-09-28T04:57:01;11.20;99.90
19665;DHT22;9980;51.020;7.772;2022-09-28T04:59:29;11.20;99.80
19665;DHT22;9980;51.020;7.772;2022-09-28T05:01:56;11.20;99.80
19665;DHT22;9980;51.020;7.772;2022-09-28T05:04:53;11.20;99.80
19665;DHT22;9980;51.020;7.772;2022-09-28T05:07:48;11.20;99.80
19665;DHT22;9980;51.020;7.772;2022-09-28T05:10:15;11.20;99.80
19665;DHT22;9980;51.020;7.772;2022-09-28T05:12:44;11.10;99.80
19665;DHT22;9980;51.020;7.772;2022-09-28T05:15:11;11.10;99.80
19665;DHT22;9980;51.020;7.772;2022-09-28T05:17:38;11.10;99.90
19665;DHT22;9980;51.020;7.772;2022-09-28T05:20:08;11.10;99.90
19665;DHT22;9980;51.020;7.772;2022-09-28T05:22:35;11.10;99.90
19665;DHT22;9980;51.020;7.772;2022-09-28T05:25:04;11.10;99.90
19665;DHT22;9980;51.020;7.772;2022-09-28T05:27:42;11.10;99.90
19665;DHT22;9980;51.020;7.772;2022-09-28T05:30:23;11.10;99.90
19665;DHT22;9980;51.020;7.772;2022-09-28T05:33:09;11.10;99.90
19665;DHT22;9980;51.020;7.772;2022-09-28T05:35:46;11.10;99.90
19665;DHT22;9980;51.020;7.772;2022-09-28T05:38:19;11.10;99.90
19665;DHT22;9980;51.020;7.772;2022-09-28T05:40:46;11.10;99.90
19665;DHT22;9980;51.020;7.772;2022-09-28T05:43:13;11.10;99.90
19665;DHT22;9980;51.020;7.772;2022-09-28T05:45:40;11.10;99.90
19665;DHT22;9980;51.020;7.772;2022-09-28T05:48:07;11.10;99.90
19665;DHT22;9980;51.020;7.772;2022-09-28T05:50:34;11.10;99.90
19665;DHT22;9980;51.020;7.772;2022-09-28T05:53:07;11.10;99.90
19665;DHT22;9980;51.020;7.772;2022-09-28T05:55:37;11.10;99.90
19665;DHT22;9980;51.020;7.772;2022-09-28T05:58:05;11.10;99.90
19665;DHT22;9980;51.020;7.772;2022-09-28T06:00:34;11.10;99.90
19665;DHT22;9980;51.020;7.772;2022-09-28T06:03:05;11.10;99.90
19665;DHT22;9980;51.020;7.772;2022-09-28T06:05:36;11.10;99.90
19665;DHT22;9980;51.020;7.772;2022-09-28T06:08:06;11.10;99.90
19665;DHT22;9980;51.020;7.772;2022-09-28T06:10:36;11.10;99.90
19665;DHT22;9980;51.020;7.772;2022-09-28T06:13:04;11.10;99.90
19665;DHT22;9980;51.020;7.772;2022-09-28T06:15:34;11.10;99.90
19665;DHT22;9980;51.020;7.772;2022-09-28T06:18:05;11.10;99.90
19665;DHT22;9980;51.020;7.772;2022-09-28T06:20:53;11.10;99.90
19665;DHT22;9980;51.020;7.772;2022-09-28T06:23:29;11.20;99.90
19665;DHT22;9980;51.020;7.772;2022-09-28T06:25:58;11.20;99.90
19665;DHT22;9980;51.020;7.772;2022-09-28T06:28:25;11.20;99.90
19665;DHT22;9980;51.020;7.772;2022-09-28T06:30:52;11.20;99.90
19665;DHT22;9980;51.020;7.772;2022-09-28T06:33:20;11.20;99.90
19665;DHT22;9980;51.020;7.772;2022-09-28T06:35:47;11.20;99.90
19665;DHT22;9980;51.020;7.772;2022-09-28T06:38:14;11.20;99.90
19665;DHT22;9980;51.020;7.772;2022-09-28T06:40:41;11.20;99.90
19665;DHT22;9980;51.020;7.772;2022-09-28T06:43:11;11.30;99.90
19665;DHT22;9980;51.020;7.772;2022-09-28T06:46:00;11.20;99.90
19665;DHT22;9980;51.020;7.772;2022-09-28T06:48:46;11.30;99.90
19665;DHT22;9980;51.020;7.772;2022-09-28T06:51:18;11.30;99.90
19665;DHT22;9980;51.020;7.772;2022-09-28T06:53:56;11.30;99.90
19665;DHT22;9980;51.020;7.772;2022-09-28T06:56:41;11.40;99.90
19665;DHT22;9980;51.020;7.772;2022-09-28T06:59:09;11.40;99.90
19665;DHT22;9980;51.020;7.772;2022-09-28T07:01:37;11.40;99.90
19665;DHT22;9980;51.020;7.772;2022-09-28T07:04:41;11.50;99.90
19665;DHT22;9980;51.020;7.772;2022-09-28T07:07:30;11.50;99.90
19665;DHT22;9980;51.020;7.772;2022-09-28T07:10:22;11.60;99.90
19665;DHT22;9980;51.020;7.772;2022-09-28T07:13:24;11.60;99.90
19665;DHT22;9980;51.020;7.772;2022-09-28T07:16:14;11.70;99.90
19665;DHT22;9980;51.020;7.772;2022-09-28T07:18:41;11.70;99.90
19665;DHT22;9980;51.020;7.772;2022-09-28T07:21:08;11.70;99.90
19665;DHT22;9980;51.020;7.772;2022-09-28T07:23:48;11.80;99.90
19665;DHT22;9980;51.020;7.772;2022-09-28T07:26:22;11.80;99.90
19665;DHT22;9980;51.020;7.772;2022-09-28T07:29:04;11.90;99.90
19665;DHT22;9980;51.020;7.772;2022-09-28T07:31:57;12.00;99.90
19665;DHT22;9980;51.020;7.772;2022-09-28T07:34:50;12.00;99.90
19665;DHT22;9980;51.020;7.772;2022-09-28T07:37:45;12.10;99.90
19665;DHT22;9980;51.020;7.772;2022-09-28T07:40:12;12.10;99.90
19665;DHT22;9980;51.020;7.772;2022-09-28T07:43:06;12.20;99.90
19665;DHT22;9980;51.020;7.772;2022-09-28T07:45:33;12.20;99.90
19665;DHT22;9980;51.020;7.772;2022-09-28T07:48:02;12.20;99.90
19665;DHT22;9980;51.020;7.772;2022-09-28T07:50:51;12.20;99.90
19665;DHT22;9980;51.020;7.772;2022-09-28T07:53:46;12.20;99.80
19665;DHT22;9980;51.020;7.772;2022-09-28T07:56:26;12.20;99.90
19665;DHT22;9980;51.020;7.772;2022-09-28T07:59:15;12.20;99.80
19665;DHT22;9980;51.020;7.772;2022-09-28T08:02:02;12.20;99.80
19665;DHT22;9980;51.020;7.772;2022-09-28T08:04:30;12.20;99.90
19665;DHT22;9980;51.020;7.772;2022-09-28T08:06:57;12.30;99.90
19665;DHT22;9980;51.020;7.772;2022-09-28T08:09:25;12.30;99.90
19665;DHT22;9980;51.020;7.772;2022-09-28T08:12:21;12.30;99.90
19665;DHT22;9980;51.020;7.772;2022-09-28T08:15:11;12.30;99.90
19665;DHT22;9980;51.020;7.772;2022-09-28T08:18:10;12.30;99.90
19665;DHT22;9980;51.020;7.772;2022-09-28T08:20:37;12.40;99.90
19665;DHT22;9980;51.020;7.772;2022-09-28T08:23:23;12.40;99.90
19665;DHT22;9980;51.020;7.772;2022-09-28T08:25:51;12.50;99.80
19665;DHT22;9980;51.020;7.772;2022-09-28T08:28:22;12.50;99.80
19665;DHT22;9980;51.020;7.772;2022-09-28T08:30:52;12.50;99.80
19665;DHT22;9980;51.020;7.772;2022-09-28T08:33:46;12.60;99.80
19665;DHT22;9980;51.020;7.772;2022-09-28T08:36:45;12.60;99.90
19665;DHT22;9980;51.020;7.772;2022-09-28T08:39:35;12.70;99.90
19665;DHT22;9980;51.020;7.772;2022-09-28T08:42:36;12.70;99.80
19665;DHT22;9980;51.020;7.772;2022-09-28T08:45:43;12.70;99.80
19665;DHT22;9980;51.020;7.772;2022-09-28T08:48:50;12.80;99.60
19665;DHT22;9980;51.020;7.772;2022-09-28T08:52:16;12.80;99.90
19665;DHT22;9980;51.020;7.772;2022-09-28T08:55:15;12.90;99.80
19665;DHT22;9980;51.020;7.772;2022-09-28T08:57:50;12.90;99.50
19665;DHT22;9980;51.020;7.772;2022-09-28T09:00:46;12.90;99.50
19665;DHT22;9980;51.020;7.772;2022-09-28T09:03:31;13.00;99.50
19665;DHT22;9980;51.020;7.772;2022-09-28T09:21:36;13.50;99.30
19665;DHT22;9980;51.020;7.772;2022-09-28T09:27:05;13.60;99.60
19665;DHT22;9980;51.020;7.772;2022-09-28T09:30:03;13.70;99.20
19665;DHT22;9980;51.020;7.772;2022-09-28T09:33:04;13.70;99.10
19665;DHT22;9980;51.020;7.772;2022-09-28T09:36:44;13.80;98.90
19665;DHT22;9980;51.020;7.772;2022-09-28T09:46:40;13.90;98.60
19665;DHT22;9980;51.020;7.772;2022-09-28T09:49:42;13.90;99.10
19665;DHT22;9980;51.020;7.772;2022-09-28T09:52:31;14.00;99.20
19665;DHT22;9980;51.020;7.772;2022-09-28T09:55:14;14.00;98.50
19665;DHT22;9980;51.020;7.772;2022-09-28T09:57:54;14.10;98.70
19665;DHT22;9980;51.020;7.772;2022-09-28T10:00:33;14.20;98.50
19665;DHT22;9980;51.020;7.772;2022-09-28T10:03:34;14.20;98.00
19665;DHT22;9980;51.020;7.772;2022-09-28T10:06:24;14.20;98.00
19665;DHT22;9980;51.020;7.772;2022-09-28T10:09:43;14.20;97.90
19665;DHT22;9980;51.020;7.772;2022-09-28T10:12:15;14.20;97.70
19665;DHT22;9980;51.020;7.772;2022-09-28T10:14:46;14.20;97.60
19665;DHT22;9980;51.020;7.772;2022-09-28T10:17:16;14.20;97.60
19665;DHT22;9980;51.020;7.772;2022-09-28T10:20:04;14.10;97.60
19665;DHT22;9980;51.020;7.772;2022-09-28T10:22:51;14.10;97.80
19665;DHT22;9980;51.020;7.772;2022-09-28T10:25:21;14.00;98.00
19665;DHT22;9980;51.020;7.772;2022-09-28T10:27:50;14.00;98.20
19665;DHT22;9980;51.020;7.772;2022-09-28T10:30:21;14.00;98.20
19665;DHT22;9980;51.020;7.772;2022-09-28T10:32:51;14.00;98.40
19665;DHT22;9980;51.020;7.772;2022-09-28T10:35:30;14.00;98.20
19665;DHT22;9980;51.020;7.772;2022-09-28T10:38:16;14.10;98.50
19665;DHT22;9980;51.020;7.772;2022-09-28T10:40:51;14.10;98.20
19665;DHT22;9980;51.020;7.772;2022-09-28T10:43:57;14.10;98.00
19665;DHT22;9980;51.020;7.772;2022-09-28T10:46:58;14.10;97.90
19665;DHT22;9980;51.020;7.772;2022-09-28T10:49:40;14.10;98.00
19665;DHT22;9980;51.020;7.772;2022-09-28T10:52:37;14.10;98.10
19665;DHT22;9980;51.020;7.772;2022-09-28T10:55:27;14.10;98.00
19665;DHT22;9980;51.020;7.772;2022-09-28T10:57:59;14.10;97.70
19665;DHT22;9980;51.020;7.772;2022-09-28T11:00:42;14.10;97.40
19665;DHT22;9980;51.020;7.772;2022-09-28T11:03:26;14.10;97.40
19665;DHT22;9980;51.020;7.772;2022-09-28T11:06:05;14.00;97.50
19665;DHT22;9980;51.020;7.772;2022-09-28T11:08:38;14.00;97.80
19665;DHT22;9980;51.020;7.772;2022-09-28T11:11:14;14.00;98.00
19665;DHT22;9980;51.020;7.772;2022-09-28T11:13:58;14.00;98.20
19665;DHT22;9980;51.020;7.772;2022-09-28T11:16:35;14.00;98.70
19665;DHT22;9980;51.020;7.772;2022-09-28T11:19:22;14.00;98.40
19665;DHT22;9980;51.020;7.772;2022-09-28T11:21:57;14.10;98.40
19665;DHT22;9980;51.020;7.772;2022-09-28T11:24:34;14.20;98.80
19665;DHT22;9980;51.020;7.772;2022-09-28T11:27:03;14.20;99.10
19665;DHT22;9980;51.020;7.772;2022-09-28T11:29:40;14.30;98.70
19665;DHT22;9980;51.020;7.772;2022-09-28T11:32:22;14.40;98.50
19665;DHT22;9980;51.020;7.772;2022-09-28T11:35:30;14.50;98.50
19665;DHT22;9980;51.020;7.772;2022-09-28T11:38:38;14.50;98.30
19665;DHT22;9980;51.020;7.772;2022-09-28T11:44:47;14.70;98.10
19665;DHT22;9980;51.020;7.772;2022-09-28T11:47:46;14.70;98.20
19665;DHT22;9980;51.020;7.772;2022-09-28T11:50:34;14.70;98.10
19665;DHT22;9980;51.020;7.772;2022-09-28T11:55:42;14.80;98.70
19665;DHT22;9980;51.020;7.772;2022-09-28T12:01:07;14.90;98.40
19665;DHT22;9980;51.020;7.772;2022-09-28T12:04:40;15.00;98.20
19665;DHT22;9980;51.020;7.772;2022-09-28T12:07:26;15.10;97.80
19665;DHT22;9980;51.020;7.772;2022-09-28T12:10:15;15.10;97.70
19665;DHT22;9980;51.020;7.772;2022-09-28T12:12:59;15.10;97.60
19665;DHT22;9980;51.020;7.772;2022-09-28T12:18:53;15.10;97.40
19665;DHT22;9980;51.020;7.772;2022-09-28T12:21:48;15.20;97.40
19665;DHT22;9980;51.020;7.772;2022-09-28T12:24:26;15.20;97.40
19665;DHT22;9980;51.020;7.772;2022-09-28T12:29:42;15.20;97.60
19665;DHT22;9980;51.020;7.772;2022-09-28T12:32:32;15.20;97.40
19665;DHT22;9980;51.020;7.772;2022-09-28T12:38:58;15.30;97.20
19665;DHT22;9980;51.020;7.772;2022-09-28T12:42:16;15.30;97.40
19665;DHT22;9980;51.020;7.772;2022-09-28T12:45:18;15.30;97.20
19665;DHT22;9980;51.020;7.772;2022-09-28T12:48:22;15.30;97.00
19665;DHT22;9980;51.020;7.772;2022-09-28T13:00:39;15.40;97.00
19665;DHT22;9980;51.020;7.772;2022-09-28T13:06:10;15.40;97.00
19665;DHT22;9980;51.020;7.772;2022-09-28T13:11:39;15.40;96.90
19665;DHT22;9980;51.020;7.772;2022-09-28T13:23:11;15.50;97.00
19665;DHT22;9980;51.020;7.772;2022-09-28T13:28:47;15.50;96.80
19665;DHT22;9980;51.020;7.772;2022-09-28T13:31:22;15.50;96.60
19665;DHT22;9980;51.020;7.772;2022-09-28T13:34:01;15.50;96.50
19665;DHT22;9980;51.020;7.772;2022-09-28T13:39:00;15.50;96.70
19665;DHT22;9980;51.020;7.772;2022-09-28T13:41:46;15.60;96.50
19665;DHT22;9980;51.020;7.772;2022-09-28T13:44:26;15.60;96.20
19665;DHT22;9980;51.020;7.772;2022-09-28T13:56:02;15.70;96.50
19665;DHT22;9980;51.020;7.772;2022-09-28T13:59:25;15.70;96.10
19665;DHT22;9980;51.020;7.772;2022-09-28T14:02:34;15.80;96.10
19665;DHT22;9980;51.020;7.772;2022-09-28T14:10:51;15.80;95.60
19665;DHT22;9980;51.020;7.772;2022-09-28T14:18:53;15.70;95.60
19665;DHT22;9980;51.020;7.772;2022-09-28T14:27:40;15.60;96.00
19665;DHT22;9980;51.020;7.772;2022-09-28T14:35:55;15.50;95.80
19665;DHT22;9980;51.020;7.772;2022-09-28T14:38:46;15.50;95.60
19665;DHT22;9980;51.020;7.772;2022-09-28T14:41:36;15.50;95.90
19665;DHT22;9980;51.020;7.772;2022-09-28T14:44:13;15.50;95.70
19665;DHT22;9980;51.020;7.772;2022-09-28T14:46:45;15.50;95.80
19665;DHT22;9980;51.020;7.772;2022-09-28T14:51:44;15.60;95.70
19665;DHT22;9980;51.020;7.772;2022-09-28T14:54:57;15.60;95.80
19665;DHT22;9980;51.020;7.772;2022-09-28T14:57:27;15.60;96.10
19665;DHT22;9980;51.020;7.772;2022-09-28T14:59:57;15.60;95.80
19665;DHT22;9980;51.020;7.772;2022-09-28T15:02:34;15.60;95.90
19665;DHT22;9980;51.020;7.772;2022-09-28T15:05:21;15.70;95.70
19665;DHT22;9980;51.020;7.772;2022-09-28T15:07:53;15.70;95.90
19665;DHT22;9980;51.020;7.772;2022-09-28T15:10:35;15.70;95.90
19665;DHT22;9980;51.020;7.772;2022-09-28T15:13:19;15.60;96.00
19665;DHT22;9980;51.020;7.772;2022-09-28T15:16:04;15.60;96.00
19665;DHT22;9980;51.020;7.772;2022-09-28T15:18:42;15.60;96.20
19665;DHT22;9980;51.020;7.772;2022-09-28T15:21:34;15.60;96.10
19665;DHT22;9980;51.020;7.772;2022-09-28T15:24:25;15.50;96.00
19665;DHT22;9980;51.020;7.772;2022-09-28T15:27:03;15.50;96.00
19665;DHT22;9980;51.020;7.772;2022-09-28T15:29:40;15.50;96.10
19665;DHT22;9980;51.020;7.772;2022-09-28T15:32:28;15.40;96.10
19665;DHT22;9980;51.020;7.772;2022-09-28T15:35:13;15.40;96.10
19665;DHT22;9980;51.020;7.772;2022-09-28T15:37:47;15.30;96.10
19665;DHT22;9980;51.020;7.772;2022-09-28T15:42:51;15.20;96.30
19665;DHT22;9980;51.020;7.772;2022-09-28T15:45:34;15.20;96.40
19665;DHT22;9980;51.020;7.772;2022-09-28T15:48:25;15.20;96.50
19665;DHT22;9980;51.020;7.772;2022-09-28T15:51:04;15.10;96.30
19665;DHT22;9980;51.020;7.772;2022-09-28T15:53:59;15.10;96.50
19665;DHT22;9980;51.020;7.772;2022-09-28T15:56:56;15.00;96.40
19665;DHT22;9980;51.020;7.772;2022-09-28T15:59:34;15.00;96.40
19665;DHT22;9980;51.020;7.772;2022-09-28T16:02:34;14.90;96.70
19665;DHT22;9980;51.020;7.772;2022-09-28T16:05:01;14.90;96.30
19665;DHT22;9980;51.020;7.772;2022-09-28T16:07:35;14.80;96.30
19665;DHT22;9980;51.020;7.772;2022-09-28T16:10:28;14.80;96.20
19665;DHT22;9980;51.020;7.772;2022-09-28T16:13:19;14.70;96.20
19665;DHT22;9980;51.020;7.772;2022-09-28T16:15:56;14.60;96.20
19665;DHT22;9980;51.020;7.772;2022-09-28T16:18:29;14.60;96.20
19665;DHT22;9980;51.020;7.772;2022-09-28T16:21:25;14.50;96.20
19665;DHT22;9980;51.020;7.772;2022-09-28T16:24:04;14.50;96.40
19665;DHT22;9980;51.020;7.772;2022-09-28T16:26:36;14.50;96.50
19665;DHT22;9980;51.020;7.772;2022-09-28T16:29:26;14.40;96.40
19665;DHT22;9980;51.020;7.772;2022-09-28T16:37:41;14.30;96.50
19665;DHT22;9980;51.020;7.772;2022-09-28T16:40:11;14.30;96.60
19665;DHT22;9980;51.020;7.772;2022-09-28T16:42:40;14.30;96.50
19665;DHT22;9980;51.020;7.772;2022-09-28T16:45:21;14.20;96.70
19665;DHT22;9980;51.020;7.772;2022-09-28T16:47:54;14.20;96.80
19665;DHT22;9980;51.020;7.772;2022-09-28T16:50:24;14.20;96.80
19665;DHT22;9980;51.020;7.772;2022-09-28T16:53:09;14.10;96.80
19665;DHT22;9980;51.020;7.772;2022-09-28T16:56:03;14.10;96.80
19665;DHT22;9980;51.020;7.772;2022-09-28T16:58:33;14.10;96.90
19665;DHT22;9980;51.020;7.772;2022-09-28T17:01:00;14.00;97.00
19665;DHT22;9980;51.020;7.772;2022-09-28T17:03:28;14.00;97.10
19665;DHT22;9980;51.020;7.772;2022-09-28T17:05:55;14.00;97.10
19665;DHT22;9980;51.020;7.772;2022-09-28T17:08:23;14.00;97.10
19665;DHT22;9980;51.020;7.772;2022-09-28T17:10:58;14.00;97.00
19665;DHT22;9980;51.020;7.772;2022-09-28T17:13:49;13.90;97.10
19665;DHT22;9980;51.020;7.772;2022-09-28T17:16:20;13.90;97.10
19665;DHT22;9980;51.020;7.772;2022-09-28T17:19:19;13.90;97.10
19665;DHT22;9980;51.020;7.772;2022-09-28T17:21:50;13.80;97.10
19665;DHT22;9980;51.020;7.772;2022-09-28T17:24:18;13.80;97.10
19665;DHT22;9980;51.020;7.772;2022-09-28T17:26:50;13.70;97.20
19665;DHT22;9980;51.020;7.772;2022-09-28T17:29:17;13.70;97.30
19665;DHT22;9980;51.020;7.772;2022-09-28T17:31:46;13.70;97.30
19665;DHT22;9980;51.020;7.772;2022-09-28T17:34:14;13.70;97.30
19665;DHT22;9980;51.020;7.772;2022-09-28T17:36:42;13.60;97.30
19665;DHT22;9980;51.020;7.772;2022-09-28T17:39:12;13.60;97.20
19665;DHT22;9980;51.020;7.772;2022-09-28T17:41:44;13.60;96.60
19665;DHT22;9980;51.020;7.772;2022-09-28T17:44:11;13.50;96.80
19665;DHT22;9980;51.020;7.772;2022-09-28T17:46:45;13.50;96.90
19665;DHT22;9980;51.020;7.772;2022-09-28T17:49:18;13.50;96.70
19665;DHT22;9980;51.020;7.772;2022-09-28T17:51:44;13.50;96.80
19665;DHT22;9980;51.020;7.772;2022-09-28T17:54:11;13.50;96.90
19665;DHT22;9980;51.020;7.772;2022-09-28T17:56:39;13.40;97.10
19665;DHT22;9980;51.020;7.772;2022-09-28T17:59:15;13.40;97.10
19665;DHT22;9980;51.020;7.772;2022-09-28T18:01:45;13.40;96.80
19665;DHT22;9980;51.020;7.772;2022-09-28T18:04:14;13.40;96.80
19665;DHT22;9980;51.020;7.772;2022-09-28T18:07:02;13.30;96.80
19665;DHT22;9980;51.020;7.772;2022-09-28T18:09:29;13.30;96.80
19665;DHT22;9980;51.020;7.772;2022-09-28T18:12:03;13.20;96.70
19665;DHT22;9980;51.020;7.772;2022-09-28T18:14:30;13.20;96.80
19665;DHT22;9980;51.020;7.772;2022-09-28T18:16:57;13.20;96.70
19665;DHT22;9980;51.020;7.772;2022-09-28T18:19:24;13.10;96.70
19665;DHT22;9980;51.020;7.772;2022-09-28T18:21:57;13.00;96.90
19665;DHT22;9980;51.020;7.772;2022-09-28T18:24:24;13.00;96.90
19665;DHT22;9980;51.020;7.772;2022-09-28T18:26:52;12.90;96.90
19665;DHT22;9980;51.020;7.772;2022-09-28T18:29:18;12.90;96.90
19665;DHT22;9980;51.020;7.772;2022-09-28T18:31:45;12.90;97.00
19665;DHT22;9980;51.020;7.772;2022-09-28T18:34:14;12.80;97.00
19665;DHT22;9980;51.020;7.772;2022-09-28T18:36:43;12.80;97.10
19665;DHT22;9980;51.020;7.772;2022-09-28T18:39:10;12.80;97.30
19665;DHT22;9980;51.020;7.772;2022-09-28T18:41:37;12.80;97.30
19665;DHT22;9980;51.020;7.772;2022-09-28T18:44:04;12.80;97.40
19665;DHT22;9980;51.020;7.772;2022-09-28T18:46:31;12.80;97.50
19665;DHT22;9980;51.020;7.772;2022-09-28T18:49:02;12.70;97.50
19665;DHT22;9980;51.020;7.772;2022-09-28T18:51:33;12.70;97.50
19665;DHT22;9980;51.020;7.772;2022-09-28T18:54:00;12.60;97.40
19665;DHT22;9980;51.020;7.772;2022-09-28T18:56:33;12.60;97.40
19665;DHT22;9980;51.020;7.772;2022-09-28T18:59:04;12.60;97.40
19665;DHT22;9980;51.020;7.772;2022-09-28T19:01:37;12.60;97.40
19665;DHT22;9980;51.020;7.772;2022-09-28T19:04:08;12.60;97.40
19665;DHT22;9980;51.020;7.772;2022-09-28T19:06:40;12.50;97.40
19665;DHT22;9980;51.020;7.772;2022-09-28T19:09:10;12.50;97.30
19665;DHT22;9980;51.020;7.772;2022-09-28T19:11:38;12.40;97.40
19665;DHT22;9980;51.020;7.772;2022-09-28T19:14:09;12.40;97.40
19665;DHT22;9980;51.020;7.772;2022-09-28T19:16:36;12.30;97.30
19665;DHT22;9980;51.020;7.772;2022-09-28T19:19:03;12.30;97.40
19665;DHT22;9980;51.020;7.772;2022-09-28T19:21:32;12.20;97.30